sensor_id;sensor_type;location;lat;lon;timestamp;P1;durP1;ratioP1;P2;durP2;ratioP2
13981;SDS011;7065;50.880;5.502;2023-04-09T00:01:47;32.90;;;23.90;;
13981;SDS011;7065;50.880;5.502;2023-04-09T00:04:13;33.70;;;23.85;;
13981;SDS011;7065;50.880;5.502;2023-04-09T00:06:39;31.13;;;22.63;;
13981;SDS011;7065;50.880;5.502;2023-04-09T00:09:05;32.47;;;23.98;;
13981;SDS011;7065;50.880;5.502;2023-04-09T00:11:31;30.77;;;22.85;;
13981;SDS011;7065;50.880;5.502;2023-04-09T00:13:57;33.00;;;24.75;;
13981;SDS011;7065;50.880;5.502;2023-04-09T00:16:23;33.72;;;24.75;;
13981;SDS011;7065;50.880;5.502;2023-04-09T00:18:49;37.40;;;26.73;;
13981;SDS011;7065;50.880;5.502;2023-04-09T00:21:15;42.22;;;29.23;;
13981;SDS011;7065;50.880;5.502;2023-04-09T00:23:41;42.33;;;30.48;;
13981;SDS011;7065;50.880;5.502;2023-04-09T00:26:08;44.92;;;30.75;;
13981;SDS011;7065;50.880;5.502;2023-04-09T00:28:34;48.25;;;33.65;;
13981;SDS011;7065;50.880;5.502;2023-04-09T00:31:00;53.22;;;36.03;;
13981;SDS011;7065;50.880;5.502;2023-04-09T00:33:26;51.47;;;36.42;;
13981;SDS011;7065;50.880;5.502;2023-04-09T00:35:52;51.78;;;37.17;;
13981;SDS011;7065;50.880;5.502;2023-04-09T00:38:18;58.58;;;38.75;;
13981;SDS011;7065;50.880;5.502;2023-04-09T00:40:47;56.50;;;37.00;;
13981;SDS011;7065;50.880;5.502;2023-04-09T00:43:15;51.13;;;35.35;;
13981;SDS011;7065;50.880;5.502;2023-04-09T00:45:42;50.10;;;34.67;;
13981;SDS011;7065;50.880;5.502;2023-04-09T00:48:08;52.83;;;36.95;;
13981;SDS011;7065;50.880;5.502;2023-04-09T00:50:35;51.40;;;34.40;;
13981;SDS011;7065;50.880;5.502;2023-04-09T00:53:01;49.08;;;34.08;;
13981;SDS011;7065;50.880;5.502;2023-04-09T00:55:27;52.30;;;35.17;;
13981;SDS011;7065;50.880;5.502;2023-04-09T00:57:54;53.13;;;35.50;;
13981;SDS011;7065;50.880;5.502;2023-04-09T01:00:19;52.17;;;36.25;;
13981;SDS011;7065;50.880;5.502;2023-04-09T01:02:45;54.28;;;36.13;;
13981;SDS011;7065;50.880;5.502;2023-04-09T01:05:12;51.42;;;35.00;;
13981;SDS011;7065;50.880;5.502;2023-04-09T01:13:46;49.72;;;32.05;;
13981;SDS011;7065;50.880;5.502;2023-04-09T01:16:28;45.10;;;30.85;;
13981;SDS011;7065;50.880;5.502;2023-04-09T01:18:56;43.95;;;30.23;;
13981;SDS011;7065;50.880;5.502;2023-04-09T01:21:29;49.75;;;32.90;;
13981;SDS011;7065;50.880;5.502;2023-04-09T01:24:18;49.15;;;33.90;;
13981;SDS011;7065;50.880;5.502;2023-04-09T01:27:04;44.13;;;30.00;;
13981;SDS011;7065;50.880;5.502;2023-04-09T01:29:32;49.80;;;33.53;;
13981;SDS011;7065;50.880;5.502;2023-04-09T01:32:01;48.83;;;32.10;;
13981;SDS011;7065;50.880;5.502;2023-04-09T01:34:28;49.22;;;33.65;;
13981;SDS011;7065;50.880;5.502;2023-04-09T01:36:56;50.75;;;34.47;;
13981;SDS011;7065;50.880;5.502;2023-04-09T01:39:23;52.53;;;35.35;;
13981;SDS011;7065;50.880;5.502;2023-04-09T01:41:50;59.20;;;37.60;;
13981;SDS011;7065;50.880;5.502;2023-04-09T01:44:17;56.65;;;37.50;;
13981;SDS011;7065;50.880;5.502;2023-04-09T01:46:45;59.55;;;38.88;;
13981;SDS011;7065;50.880;5.502;2023-04-09T01:49:12;59.53;;;38.85;;
13981;SDS011;7065;50.880;5.502;2023-04-09T01:51:38;58.75;;;37.30;;
13981;SDS011;7065;50.880;5.502;2023-04-09T01:54:04;54.10;;;35.38;;
13981;SDS011;7065;50.880;5.502;2023-04-09T01:56:43;54.90;;;35.30;;
13981;SDS011;7065;50.880;5.502;2023-04-09T01:59:11;63.55;;;41.28;;
13981;SDS011;7065;50.880;5.502;2023-04-09T02:01:42;65.47;;;41.90;;
13981;SDS011;7065;50.880;5.502;2023-04-09T02:04:21;73.35;;;45.20;;
13981;SDS011;7065;50.880;5.502;2023-04-09T02:09:30;59.42;;;39.20;;
13981;SDS011;7065;50.880;5.502;2023-04-09T02:11:58;61.13;;;38.72;;
13981;SDS011;7065;50.880;5.502;2023-04-09T02:14:28;61.92;;;39.65;;
13981;SDS011;7065;50.880;5.502;2023-04-09T02:16:57;55.72;;;36.40;;
13981;SDS011;7065;50.880;5.502;2023-04-09T02:19:23;49.47;;;32.00;;
13981;SDS011;7065;50.880;5.502;2023-04-09T02:21:49;50.20;;;31.73;;
13981;SDS011;7065;50.880;5.502;2023-04-09T02:24:15;42.10;;;28.70;;
13981;SDS011;7065;50.880;5.502;2023-04-09T02:26:42;45.70;;;30.33;;
13981;SDS011;7065;50.880;5.502;2023-04-09T02:29:07;58.92;;;38.03;;
13981;SDS011;7065;50.880;5.502;2023-04-09T02:31:33;59.85;;;38.55;;
13981;SDS011;7065;50.880;5.502;2023-04-09T02:33:59;54.05;;;34.80;;
13981;SDS011;7065;50.880;5.502;2023-04-09T02:36:24;48.88;;;33.20;;
13981;SDS011;7065;50.880;5.502;2023-04-09T02:38:51;52.67;;;33.33;;
13981;SDS011;7065;50.880;5.502;2023-04-09T02:41:17;62.03;;;38.08;;
13981;SDS011;7065;50.880;5.502;2023-04-09T02:43:42;62.30;;;39.83;;
13981;SDS011;7065;50.880;5.502;2023-04-09T02:46:08;68.10;;;42.17;;
13981;SDS011;7065;50.880;5.502;2023-04-09T02:48:35;60.05;;;38.30;;
13981;SDS011;7065;50.880;5.502;2023-04-09T02:51:00;59.65;;;38.25;;
13981;SDS011;7065;50.880;5.502;2023-04-09T02:53:28;57.83;;;36.30;;
13981;SDS011;7065;50.880;5.502;2023-04-09T02:55:54;51.03;;;34.45;;
13981;SDS011;7065;50.880;5.502;2023-04-09T02:58:20;56.35;;;36.08;;
13981;SDS011;7065;50.880;5.502;2023-04-09T03:00:45;65.13;;;39.80;;
13981;SDS011;7065;50.880;5.502;2023-04-09T03:03:11;69.35;;;42.22;;
13981;SDS011;7065;50.880;5.502;2023-04-09T03:05:37;64.85;;;41.03;;
13981;SDS011;7065;50.880;5.502;2023-04-09T03:08:03;63.80;;;40.22;;
13981;SDS011;7065;50.880;5.502;2023-04-09T03:10:29;60.40;;;36.75;;
13981;SDS011;7065;50.880;5.502;2023-04-09T03:12:54;49.55;;;30.90;;
13981;SDS011;7065;50.880;5.502;2023-04-09T03:15:20;57.00;;;36.05;;
13981;SDS011;7065;50.880;5.502;2023-04-09T03:17:45;52.80;;;33.22;;
13981;SDS011;7065;50.880;5.502;2023-04-09T03:20:11;54.25;;;34.35;;
13981;SDS011;7065;50.880;5.502;2023-04-09T03:22:37;52.00;;;32.03;;
13981;SDS011;7065;50.880;5.502;2023-04-09T03:25:03;47.50;;;30.27;;
13981;SDS011;7065;50.880;5.502;2023-04-09T03:27:31;45.92;;;30.02;;
13981;SDS011;7065;50.880;5.502;2023-04-09T03:29:57;47.38;;;30.85;;
13981;SDS011;7065;50.880;5.502;2023-04-09T03:32:22;45.30;;;30.05;;
13981;SDS011;7065;50.880;5.502;2023-04-09T03:34:48;47.55;;;31.35;;
13981;SDS011;7065;50.880;5.502;2023-04-09T03:37:14;47.10;;;30.90;;
13981;SDS011;7065;50.880;5.502;2023-04-09T03:39:40;48.53;;;32.17;;
13981;SDS011;7065;50.880;5.502;2023-04-09T03:42:06;56.30;;;35.22;;
13981;SDS011;7065;50.880;5.502;2023-04-09T03:44:32;57.50;;;35.33;;
13981;SDS011;7065;50.880;5.502;2023-04-09T03:46:57;76.93;;;44.22;;
13981;SDS011;7065;50.880;5.502;2023-04-09T03:49:23;67.05;;;38.45;;
13981;SDS011;7065;50.880;5.502;2023-04-09T03:51:49;64.28;;;38.60;;
13981;SDS011;7065;50.880;5.502;2023-04-09T03:54:14;57.25;;;35.15;;
13981;SDS011;7065;50.880;5.502;2023-04-09T03:56:40;47.85;;;31.85;;
13981;SDS011;7065;50.880;5.502;2023-04-09T03:59:06;52.45;;;33.15;;
13981;SDS011;7065;50.880;5.502;2023-04-09T04:01:31;45.42;;;29.77;;
13981;SDS011;7065;50.880;5.502;2023-04-09T04:03:58;51.47;;;32.08;;
13981;SDS011;7065;50.880;5.502;2023-04-09T04:06:24;55.40;;;33.75;;
13981;SDS011;7065;50.880;5.502;2023-04-09T04:08:51;54.80;;;33.50;;
13981;SDS011;7065;50.880;5.502;2023-04-09T04:11:17;54.65;;;33.28;;
13981;SDS011;7065;50.880;5.502;2023-04-09T04:13:42;49.55;;;31.40;;
13981;SDS011;7065;50.880;5.502;2023-04-09T04:16:08;50.35;;;31.48;;
13981;SDS011;7065;50.880;5.502;2023-04-09T04:18:34;51.22;;;31.45;;
13981;SDS011;7065;50.880;5.502;2023-04-09T04:21:00;51.30;;;32.83;;
13981;SDS011;7065;50.880;5.502;2023-04-09T04:23:26;63.28;;;37.10;;
13981;SDS011;7065;50.880;5.502;2023-04-09T04:25:52;56.70;;;34.60;;
13981;SDS011;7065;50.880;5.502;2023-04-09T04:28:18;55.13;;;34.67;;
13981;SDS011;7065;50.880;5.502;2023-04-09T04:30:44;54.03;;;34.95;;
13981;SDS011;7065;50.880;5.502;2023-04-09T04:33:09;51.80;;;31.42;;
13981;SDS011;7065;50.880;5.502;2023-04-09T04:35:35;54.97;;;33.17;;
13981;SDS011;7065;50.880;5.502;2023-04-09T04:38:01;55.85;;;31.85;;
13981;SDS011;7065;50.880;5.502;2023-04-09T04:40:27;52.97;;;31.75;;
13981;SDS011;7065;50.880;5.502;2023-04-09T04:42:52;53.63;;;32.58;;
13981;SDS011;7065;50.880;5.502;2023-04-09T04:45:18;53.38;;;32.75;;
13981;SDS011;7065;50.880;5.502;2023-04-09T04:47:44;54.55;;;32.83;;
13981;SDS011;7065;50.880;5.502;2023-04-09T04:50:10;57.92;;;34.15;;
13981;SDS011;7065;50.880;5.502;2023-04-09T04:52:36;51.47;;;30.73;;
13981;SDS011;7065;50.880;5.502;2023-04-09T04:55:03;47.92;;;30.83;;
13981;SDS011;7065;50.880;5.502;2023-04-09T04:57:28;46.80;;;28.60;;
13981;SDS011;7065;50.880;5.502;2023-04-09T04:59:54;48.17;;;29.65;;
13981;SDS011;7065;50.880;5.502;2023-04-09T05:02:20;43.97;;;27.45;;
13981;SDS011;7065;50.880;5.502;2023-04-09T05:04:45;40.00;;;25.77;;
13981;SDS011;7065;50.880;5.502;2023-04-09T05:07:11;43.30;;;28.20;;
13981;SDS011;7065;50.880;5.502;2023-04-09T05:09:37;47.38;;;29.40;;
13981;SDS011;7065;50.880;5.502;2023-04-09T05:12:02;49.60;;;30.67;;
13981;SDS011;7065;50.880;5.502;2023-04-09T05:14:28;62.33;;;36.47;;
13981;SDS011;7065;50.880;5.502;2023-04-09T05:16:54;59.47;;;35.38;;
13981;SDS011;7065;50.880;5.502;2023-04-09T05:19:19;58.05;;;33.78;;
13981;SDS011;7065;50.880;5.502;2023-04-09T05:21:45;41.50;;;26.67;;
13981;SDS011;7065;50.880;5.502;2023-04-09T05:24:11;46.03;;;27.52;;
13981;SDS011;7065;50.880;5.502;2023-04-09T05:26:36;38.40;;;25.45;;
13981;SDS011;7065;50.880;5.502;2023-04-09T05:29:02;47.65;;;30.27;;
13981;SDS011;7065;50.880;5.502;2023-04-09T05:31:28;59.47;;;34.60;;
13981;SDS011;7065;50.880;5.502;2023-04-09T05:33:53;54.38;;;32.67;;
13981;SDS011;7065;50.880;5.502;2023-04-09T05:36:19;54.90;;;32.85;;
13981;SDS011;7065;50.880;5.502;2023-04-09T05:38:45;55.67;;;33.90;;
13981;SDS011;7065;50.880;5.502;2023-04-09T05:41:11;54.67;;;32.33;;
13981;SDS011;7065;50.880;5.502;2023-04-09T05:43:37;51.42;;;31.30;;
13981;SDS011;7065;50.880;5.502;2023-04-09T05:46:04;58.03;;;32.92;;
13981;SDS011;7065;50.880;5.502;2023-04-09T05:48:29;60.42;;;35.97;;
13981;SDS011;7065;50.880;5.502;2023-04-09T05:50:55;63.70;;;37.83;;
13981;SDS011;7065;50.880;5.502;2023-04-09T05:53:21;66.85;;;36.30;;
13981;SDS011;7065;50.880;5.502;2023-04-09T05:55:47;59.42;;;34.17;;
13981;SDS011;7065;50.880;5.502;2023-04-09T05:58:16;64.20;;;36.75;;
13981;SDS011;7065;50.880;5.502;2023-04-09T06:00:42;65.45;;;36.78;;
13981;SDS011;7065;50.880;5.502;2023-04-09T06:03:08;60.95;;;34.85;;
13981;SDS011;7065;50.880;5.502;2023-04-09T06:05:34;59.17;;;34.67;;
13981;SDS011;7065;50.880;5.502;2023-04-09T06:08:00;60.08;;;35.47;;
13981;SDS011;7065;50.880;5.502;2023-04-09T06:10:26;60.75;;;34.75;;
13981;SDS011;7065;50.880;5.502;2023-04-09T06:12:52;66.53;;;39.60;;
13981;SDS011;7065;50.880;5.502;2023-04-09T06:15:17;71.03;;;41.97;;
13981;SDS011;7065;50.880;5.502;2023-04-09T06:17:43;71.55;;;41.65;;
13981;SDS011;7065;50.880;5.502;2023-04-09T06:20:09;77.70;;;44.42;;
13981;SDS011;7065;50.880;5.502;2023-04-09T06:22:35;74.35;;;43.38;;
13981;SDS011;7065;50.880;5.502;2023-04-09T06:25:02;69.22;;;42.30;;
13981;SDS011;7065;50.880;5.502;2023-04-09T06:27:28;69.32;;;42.83;;
13981;SDS011;7065;50.880;5.502;2023-04-09T06:29:53;71.57;;;43.58;;
13981;SDS011;7065;50.880;5.502;2023-04-09T06:32:19;79.93;;;46.92;;
13981;SDS011;7065;50.880;5.502;2023-04-09T06:34:45;79.75;;;45.90;;
13981;SDS011;7065;50.880;5.502;2023-04-09T06:37:12;81.43;;;47.05;;
13981;SDS011;7065;50.880;5.502;2023-04-09T06:39:37;78.68;;;46.88;;
13981;SDS011;7065;50.880;5.502;2023-04-09T06:42:04;82.70;;;48.63;;
13981;SDS011;7065;50.880;5.502;2023-04-09T06:44:30;82.30;;;48.72;;
13981;SDS011;7065;50.880;5.502;2023-04-09T06:46:57;78.00;;;47.33;;
13981;SDS011;7065;50.880;5.502;2023-04-09T06:49:23;83.85;;;46.97;;
13981;SDS011;7065;50.880;5.502;2023-04-09T06:51:49;80.85;;;47.40;;
13981;SDS011;7065;50.880;5.502;2023-04-09T06:54:17;83.50;;;50.67;;
13981;SDS011;7065;50.880;5.502;2023-04-09T06:56:43;86.13;;;52.60;;
13981;SDS011;7065;50.880;5.502;2023-04-09T06:59:09;89.18;;;51.78;;
13981;SDS011;7065;50.880;5.502;2023-04-09T07:01:35;89.68;;;52.30;;
13981;SDS011;7065;50.880;5.502;2023-04-09T07:04:01;88.03;;;51.70;;
13981;SDS011;7065;50.880;5.502;2023-04-09T07:06:28;90.97;;;52.15;;
13981;SDS011;7065;50.880;5.502;2023-04-09T07:08:54;88.65;;;52.58;;
13981;SDS011;7065;50.880;5.502;2023-04-09T07:11:20;86.72;;;52.10;;
13981;SDS011;7065;50.880;5.502;2023-04-09T07:13:46;84.38;;;52.55;;
13981;SDS011;7065;50.880;5.502;2023-04-09T07:16:11;80.22;;;49.72;;
13981;SDS011;7065;50.880;5.502;2023-04-09T07:18:37;85.88;;;52.80;;
13981;SDS011;7065;50.880;5.502;2023-04-09T07:21:03;84.63;;;51.53;;
13981;SDS011;7065;50.880;5.502;2023-04-09T07:23:29;81.30;;;50.28;;
13981;SDS011;7065;50.880;5.502;2023-04-09T07:26:00;81.18;;;49.17;;
13981;SDS011;7065;50.880;5.502;2023-04-09T07:28:29;82.30;;;50.05;;
13981;SDS011;7065;50.880;5.502;2023-04-09T07:30:55;83.93;;;50.65;;
13981;SDS011;7065;50.880;5.502;2023-04-09T07:33:21;78.32;;;49.08;;
13981;SDS011;7065;50.880;5.502;2023-04-09T07:35:47;78.07;;;51.17;;
13981;SDS011;7065;50.880;5.502;2023-04-09T07:38:13;80.97;;;51.00;;
13981;SDS011;7065;50.880;5.502;2023-04-09T07:40:38;79.60;;;50.85;;
13981;SDS011;7065;50.880;5.502;2023-04-09T07:43:04;81.10;;;51.38;;
13981;SDS011;7065;50.880;5.502;2023-04-09T07:45:31;78.90;;;49.03;;
13981;SDS011;7065;50.880;5.502;2023-04-09T07:47:57;77.93;;;50.03;;
13981;SDS011;7065;50.880;5.502;2023-04-09T07:50:22;66.80;;;45.15;;
13981;SDS011;7065;50.880;5.502;2023-04-09T07:52:48;75.88;;;49.10;;
13981;SDS011;7065;50.880;5.502;2023-04-09T07:55:14;75.60;;;48.75;;
13981;SDS011;7065;50.880;5.502;2023-04-09T07:57:40;71.40;;;47.35;;
13981;SDS011;7065;50.880;5.502;2023-04-09T08:00:07;75.55;;;49.30;;
13981;SDS011;7065;50.880;5.502;2023-04-09T08:02:33;77.10;;;49.67;;
13981;SDS011;7065;50.880;5.502;2023-04-09T08:04:59;74.15;;;48.45;;
13981;SDS011;7065;50.880;5.502;2023-04-09T08:07:26;76.43;;;50.53;;
13981;SDS011;7065;50.880;5.502;2023-04-09T08:09:52;71.88;;;48.08;;
13981;SDS011;7065;50.880;5.502;2023-04-09T08:12:17;66.70;;;44.22;;
13981;SDS011;7065;50.880;5.502;2023-04-09T08:14:43;64.97;;;44.90;;
13981;SDS011;7065;50.880;5.502;2023-04-09T08:17:09;64.53;;;42.92;;
13981;SDS011;7065;50.880;5.502;2023-04-09T08:19:34;65.28;;;44.55;;
13981;SDS011;7065;50.880;5.502;2023-04-09T08:22:00;66.63;;;44.25;;
13981;SDS011;7065;50.880;5.502;2023-04-09T08:24:27;60.22;;;42.22;;
13981;SDS011;7065;50.880;5.502;2023-04-09T08:26:53;63.13;;;50.10;;
13981;SDS011;7065;50.880;5.502;2023-04-09T08:29:18;59.92;;;42.45;;
13981;SDS011;7065;50.880;5.502;2023-04-09T08:31:44;54.33;;;39.40;;
13981;SDS011;7065;50.880;5.502;2023-04-09T08:34:10;52.60;;;38.30;;
13981;SDS011;7065;50.880;5.502;2023-04-09T08:36:36;51.30;;;36.53;;
13981;SDS011;7065;50.880;5.502;2023-04-09T08:39:02;52.72;;;37.67;;
13981;SDS011;7065;50.880;5.502;2023-04-09T08:41:28;46.10;;;34.15;;
13981;SDS011;7065;50.880;5.502;2023-04-09T08:43:54;37.80;;;28.00;;
13981;SDS011;7065;50.880;5.502;2023-04-09T08:46:20;32.25;;;24.75;;
13981;SDS011;7065;50.880;5.502;2023-04-09T08:48:48;36.08;;;26.85;;
13981;SDS011;7065;50.880;5.502;2023-04-09T08:51:15;35.17;;;26.38;;
13981;SDS011;7065;50.880;5.502;2023-04-09T08:53:43;31.70;;;23.58;;
13981;SDS011;7065;50.880;5.502;2023-04-09T08:56:11;31.73;;;24.55;;
13981;SDS011;7065;50.880;5.502;2023-04-09T08:58:40;28.25;;;21.98;;
13981;SDS011;7065;50.880;5.502;2023-04-09T09:04:01;26.73;;;21.92;;
13981;SDS011;7065;50.880;5.502;2023-04-09T09:06:32;26.77;;;21.52;;
13981;SDS011;7065;50.880;5.502;2023-04-09T09:11:38;23.42;;;19.20;;
13981;SDS011;7065;50.880;5.502;2023-04-09T09:14:09;24.83;;;20.75;;
13981;SDS011;7065;50.880;5.502;2023-04-09T09:16:40;21.65;;;18.35;;
13981;SDS011;7065;50.880;5.502;2023-04-09T09:19:09;22.80;;;18.30;;
13981;SDS011;7065;50.880;5.502;2023-04-09T09:21:57;21.80;;;16.45;;
13981;SDS011;7065;50.880;5.502;2023-04-09T09:24:24;19.52;;;16.25;;
13981;SDS011;7065;50.880;5.502;2023-04-09T09:26:51;22.50;;;17.63;;
13981;SDS011;7065;50.880;5.502;2023-04-09T09:29:18;22.02;;;17.55;;
13981;SDS011;7065;50.880;5.502;2023-04-09T09:31:49;19.73;;;16.33;;
13981;SDS011;7065;50.880;5.502;2023-04-09T09:34:17;20.05;;;16.23;;
13981;SDS011;7065;50.880;5.502;2023-04-09T09:36:44;21.98;;;17.55;;
13981;SDS011;7065;50.880;5.502;2023-04-09T09:39:10;17.17;;;15.10;;
13981;SDS011;7065;50.880;5.502;2023-04-09T09:41:39;16.95;;;14.95;;
13981;SDS011;7065;50.880;5.502;2023-04-09T09:44:06;16.58;;;14.25;;
13981;SDS011;7065;50.880;5.502;2023-04-09T09:46:34;17.95;;;15.30;;
13981;SDS011;7065;50.880;5.502;2023-04-09T09:49:01;19.05;;;15.25;;
13981;SDS011;7065;50.880;5.502;2023-04-09T09:51:27;16.33;;;14.00;;
13981;SDS011;7065;50.880;5.502;2023-04-09T09:53:55;17.27;;;13.88;;
13981;SDS011;7065;50.880;5.502;2023-04-09T09:56:22;13.88;;;12.40;;
13981;SDS011;7065;50.880;5.502;2023-04-09T09:59:42;13.43;;;12.02;;
13981;SDS011;7065;50.880;5.502;2023-04-09T10:01:42;15.10;;;13.18;;
13981;SDS011;7065;50.880;5.502;2023-04-09T10:04:11;15.15;;;12.23;;
13981;SDS011;7065;50.880;5.502;2023-04-09T10:06:42;13.23;;;11.10;;
13981;SDS011;7065;50.880;5.502;2023-04-09T10:09:10;12.45;;;11.15;;
13981;SDS011;7065;50.880;5.502;2023-04-09T10:11:37;10.57;;;8.73;;
13981;SDS011;7065;50.880;5.502;2023-04-09T10:14:06;9.07;;;8.10;;
13981;SDS011;7065;50.880;5.502;2023-04-09T10:16:32;11.15;;;9.93;;
13981;SDS011;7065;50.880;5.502;2023-04-09T10:18:59;7.97;;;7.18;;
13981;SDS011;7065;50.880;5.502;2023-04-09T10:24:07;9.90;;;8.90;;
13981;SDS011;7065;50.880;5.502;2023-04-09T10:26:34;11.57;;;10.07;;
13981;SDS011;7065;50.880;5.502;2023-04-09T10:29:05;9.50;;;8.57;;
13981;SDS011;7065;50.880;5.502;2023-04-09T10:31:44;12.32;;;10.23;;
13981;SDS011;7065;50.880;5.502;2023-04-09T10:34:22;9.55;;;8.55;;
13981;SDS011;7065;50.880;5.502;2023-04-09T10:36:54;10.10;;;8.98;;
13981;SDS011;7065;50.880;5.502;2023-04-09T10:39:24;10.10;;;9.10;;
13981;SDS011;7065;50.880;5.502;2023-04-09T10:41:55;10.55;;;9.45;;
13981;SDS011;7065;50.880;5.502;2023-04-09T10:44:27;9.75;;;8.75;;
13981;SDS011;7065;50.880;5.502;2023-04-09T10:46:56;10.90;;;9.63;;
13981;SDS011;7065;50.880;5.502;2023-04-09T10:59:35;11.20;;;10.02;;
13981;SDS011;7065;50.880;5.502;2023-04-09T11:02:03;11.20;;;10.02;;
13981;SDS011;7065;50.880;5.502;2023-04-09T11:07:25;10.55;;;9.45;;
13981;SDS011;7065;50.880;5.502;2023-04-09T11:09:54;9.30;;;8.40;;
13981;SDS011;7065;50.880;5.502;2023-04-09T11:12:19;7.32;;;6.68;;
13981;SDS011;7065;50.880;5.502;2023-04-09T11:14:45;8.38;;;7.57;;
13981;SDS011;7065;50.880;5.502;2023-04-09T11:17:11;8.25;;;7.45;;
13981;SDS011;7065;50.880;5.502;2023-04-09T11:19:37;8.88;;;7.47;;
13981;SDS011;7065;50.880;5.502;2023-04-09T11:22:03;8.88;;;8.07;;
13981;SDS011;7065;50.880;5.502;2023-04-09T11:24:39;8.65;;;7.72;;
13981;SDS011;7065;50.880;5.502;2023-04-09T11:27:06;7.60;;;6.57;;
13981;SDS011;7065;50.880;5.502;2023-04-09T11:29:33;7.13;;;6.43;;
13981;SDS011;7065;50.880;5.502;2023-04-09T11:32:00;9.93;;;8.93;;
13981;SDS011;7065;50.880;5.502;2023-04-09T11:34:27;9.15;;;8.18;;
13981;SDS011;7065;50.880;5.502;2023-04-09T11:36:52;7.72;;;7.03;;
13981;SDS011;7065;50.880;5.502;2023-04-09T11:39:18;9.60;;;7.10;;
13981;SDS011;7065;50.880;5.502;2023-04-09T11:41:44;9.35;;;8.35;;
13981;SDS011;7065;50.880;5.502;2023-04-09T11:44:10;7.82;;;7.07;;
13981;SDS011;7065;50.880;5.502;2023-04-09T11:46:37;5.72;;;5.22;;
13981;SDS011;7065;50.880;5.502;2023-04-09T11:49:03;7.57;;;6.80;;
13981;SDS011;7065;50.880;5.502;2023-04-09T11:51:29;7.70;;;6.90;;
13981;SDS011;7065;50.880;5.502;2023-04-09T11:54:03;8.18;;;7.20;;
13981;SDS011;7065;50.880;5.502;2023-04-09T11:56:29;7.65;;;6.95;;
13981;SDS011;7065;50.880;5.502;2023-04-09T11:58:56;9.35;;;8.45;;
13981;SDS011;7065;50.880;5.502;2023-04-09T12:01:22;8.30;;;7.50;;
13981;SDS011;7065;50.880;5.502;2023-04-09T12:03:52;6.50;;;5.68;;
13981;SDS011;7065;50.880;5.502;2023-04-09T12:06:20;6.30;;;5.70;;
13981;SDS011;7065;50.880;5.502;2023-04-09T12:08:52;6.90;;;6.18;;
13981;SDS011;7065;50.880;5.502;2023-04-09T12:11:30;7.57;;;6.78;;
13981;SDS011;7065;50.880;5.502;2023-04-09T12:14:02;7.70;;;6.95;;
13981;SDS011;7065;50.880;5.502;2023-04-09T12:16:33;6.47;;;5.85;;
13981;SDS011;7065;50.880;5.502;2023-04-09T12:19:03;7.00;;;6.30;;
13981;SDS011;7065;50.880;5.502;2023-04-09T12:22:13;8.23;;;7.28;;
13981;SDS011;7065;50.880;5.502;2023-04-09T12:24:23;7.82;;;7.03;;
13981;SDS011;7065;50.880;5.502;2023-04-09T12:26:50;8.20;;;7.40;;
13981;SDS011;7065;50.880;5.502;2023-04-09T12:29:18;9.68;;;8.68;;
13981;SDS011;7065;50.880;5.502;2023-04-09T12:31:44;8.25;;;7.45;;
13981;SDS011;7065;50.880;5.502;2023-04-09T12:34:11;8.77;;;7.97;;
13981;SDS011;7065;50.880;5.502;2023-04-09T12:36:37;8.35;;;7.50;;
13981;SDS011;7065;50.880;5.502;2023-04-09T12:39:05;9.52;;;8.60;;
13981;SDS011;7065;50.880;5.502;2023-04-09T12:41:32;9.50;;;8.50;;
13981;SDS011;7065;50.880;5.502;2023-04-09T12:43:58;10.13;;;9.13;;
13981;SDS011;7065;50.880;5.502;2023-04-09T12:46:24;11.05;;;9.88;;
13981;SDS011;7065;50.880;5.502;2023-04-09T12:48:51;10.13;;;9.13;;
13981;SDS011;7065;50.880;5.502;2023-04-09T12:51:16;10.52;;;9.50;;
13981;SDS011;7065;50.880;5.502;2023-04-09T12:53:42;10.88;;;8.60;;
13981;SDS011;7065;50.880;5.502;2023-04-09T12:56:08;12.43;;;9.30;;
13981;SDS011;7065;50.880;5.502;2023-04-09T12:58:34;10.20;;;9.20;;
13981;SDS011;7065;50.880;5.502;2023-04-09T13:01:00;9.63;;;8.68;;
13981;SDS011;7065;50.880;5.502;2023-04-09T13:03:28;9.98;;;8.98;;
13981;SDS011;7065;50.880;5.502;2023-04-09T13:05:53;12.35;;;9.65;;
13981;SDS011;7065;50.880;5.502;2023-04-09T13:08:19;9.98;;;8.98;;
13981;SDS011;7065;50.880;5.502;2023-04-09T13:10:45;10.13;;;9.13;;
13981;SDS011;7065;50.880;5.502;2023-04-09T13:13:11;8.98;;;8.07;;
13981;SDS011;7065;50.880;5.502;2023-04-09T13:15:38;9.55;;;8.65;;
13981;SDS011;7065;50.880;5.502;2023-04-09T13:18:07;9.55;;;8.55;;
13981;SDS011;7065;50.880;5.502;2023-04-09T13:20:32;8.55;;;7.68;;
13981;SDS011;7065;50.880;5.502;2023-04-09T13:22:58;8.18;;;7.47;;
13981;SDS011;7065;50.880;5.502;2023-04-09T13:25:24;8.95;;;8.13;;
13981;SDS011;7065;50.880;5.502;2023-04-09T13:27:50;9.40;;;8.43;;
13981;SDS011;7065;50.880;5.502;2023-04-09T13:30:15;10.05;;;8.73;;
13981;SDS011;7065;50.880;5.502;2023-04-09T13:32:41;10.10;;;9.02;;
13981;SDS011;7065;50.880;5.502;2023-04-09T13:35:08;8.75;;;7.85;;
13981;SDS011;7065;50.880;5.502;2023-04-09T13:37:34;8.82;;;7.93;;
13981;SDS011;7065;50.880;5.502;2023-04-09T13:40:00;9.20;;;8.32;;
13981;SDS011;7065;50.880;5.502;2023-04-09T13:42:26;9.98;;;9.02;;
13981;SDS011;7065;50.880;5.502;2023-04-09T13:44:52;10.80;;;9.80;;
13981;SDS011;7065;50.880;5.502;2023-04-09T13:47:18;10.43;;;9.35;;
13981;SDS011;7065;50.880;5.502;2023-04-09T13:49:43;9.90;;;8.90;;
13981;SDS011;7065;50.880;5.502;2023-04-09T13:52:09;10.15;;;9.15;;
13981;SDS011;7065;50.880;5.502;2023-04-09T13:54:36;10.20;;;9.20;;
13981;SDS011;7065;50.880;5.502;2023-04-09T13:57:02;9.65;;;8.63;;
13981;SDS011;7065;50.880;5.502;2023-04-09T13:59:28;9.10;;;8.20;;
13981;SDS011;7065;50.880;5.502;2023-04-09T14:01:54;9.57;;;8.68;;
13981;SDS011;7065;50.880;5.502;2023-04-09T14:04:19;10.15;;;9.15;;
13981;SDS011;7065;50.880;5.502;2023-04-09T14:06:45;9.32;;;8.25;;
13981;SDS011;7065;50.880;5.502;2023-04-09T14:09:13;9.05;;;8.05;;
13981;SDS011;7065;50.880;5.502;2023-04-09T14:11:39;9.13;;;7.97;;
13981;SDS011;7065;50.880;5.502;2023-04-09T14:14:05;9.38;;;8.43;;
13981;SDS011;7065;50.880;5.502;2023-04-09T14:16:31;8.50;;;7.70;;
13981;SDS011;7065;50.880;5.502;2023-04-09T14:18:57;8.90;;;7.85;;
13981;SDS011;7065;50.880;5.502;2023-04-09T14:21:23;10.32;;;9.30;;
13981;SDS011;7065;50.880;5.502;2023-04-09T14:23:49;9.57;;;8.55;;
13981;SDS011;7065;50.880;5.502;2023-04-09T14:26:15;9.60;;;8.70;;
13981;SDS011;7065;50.880;5.502;2023-04-09T14:28:41;9.35;;;8.45;;
13981;SDS011;7065;50.880;5.502;2023-04-09T14:31:07;9.20;;;8.40;;
13981;SDS011;7065;50.880;5.502;2023-04-09T14:33:33;9.80;;;8.68;;
13981;SDS011;7065;50.880;5.502;2023-04-09T14:35:59;9.25;;;8.45;;
13981;SDS011;7065;50.880;5.502;2023-04-09T14:38:24;9.82;;;8.93;;
13981;SDS011;7065;50.880;5.502;2023-04-09T14:40:50;8.70;;;8.00;;
13981;SDS011;7065;50.880;5.502;2023-04-09T14:43:16;9.60;;;8.70;;
13981;SDS011;7065;50.880;5.502;2023-04-09T14:45:42;9.95;;;8.95;;
13981;SDS011;7065;50.880;5.502;2023-04-09T14:48:08;9.60;;;8.65;;
13981;SDS011;7065;50.880;5.502;2023-04-09T14:50:34;9.25;;;8.35;;
13981;SDS011;7065;50.880;5.502;2023-04-09T14:53:01;9.43;;;8.27;;
13981;SDS011;7065;50.880;5.502;2023-04-09T14:55:28;9.18;;;8.27;;
13981;SDS011;7065;50.880;5.502;2023-04-09T14:57:54;9.52;;;8.63;;
13981;SDS011;7065;50.880;5.502;2023-04-09T15:00:19;8.48;;;7.68;;
13981;SDS011;7065;50.880;5.502;2023-04-09T15:02:45;8.60;;;7.78;;
13981;SDS011;7065;50.880;5.502;2023-04-09T15:05:11;9.75;;;8.75;;
13981;SDS011;7065;50.880;5.502;2023-04-09T15:07:38;9.13;;;7.97;;
13981;SDS011;7065;50.880;5.502;2023-04-09T15:10:03;8.48;;;7.50;;